sensor_id;sensor_type;location;lat;lon;timestamp;P1;durP1;ratioP1;P2;durP2;ratioP2
40621;SDS011;26324;52.040;11.528;2024-03-23T00:55:18;7.15;;;2.70;;
40621;SDS011;26324;52.040;11.528;2024-03-23T00:57:44;6.55;;;3.72;;
40621;SDS011;26324;52.040;11.528;2024-03-23T01:00:11;9.15;;;3.22;;
40621;SDS011;26324;52.040;11.528;2024-03-23T01:02:38;10.73;;;4.65;;
40621;SDS011;26324;52.040;11.528;2024-03-23T01:05:04;11.90;;;5.20;;
40621;SDS011;26324;52.040;11.528;2024-03-23T01:07:30;13.80;;;5.47;;
40621;SDS011;26324;52.040;11.528;2024-03-23T01:09:57;14.85;;;5.68;;
40621;SDS011;26324;52.040;11.528;2024-03-23T01:12:23;12.52;;;6.70;;
40621;SDS011;26324;52.040;11.528;2024-03-23T01:14:50;12.35;;;5.65;;
40621;SDS011;26324;52.040;11.528;2024-03-23T01:17:16;14.80;;;5.47;;
40621;SDS011;26324;52.040;11.528;2024-03-23T01:19:43;13.52;;;6.38;;
40621;SDS011;26324;52.040;11.528;2024-03-23T01:22:09;15.43;;;5.88;;
40621;SDS011;26324;52.040;11.528;2024-03-23T01:24:35;18.17;;;6.88;;
40621;SDS011;26324;52.040;11.528;2024-03-23T01:27:02;16.15;;;6.18;;
40621;SDS011;26324;52.040;11.528;2024-03-23T01:29:29;11.80;;;4.75;;
40621;SDS011;26324;52.040;11.528;2024-03-23T01:31:55;16.30;;;5.40;;
40621;SDS011;26324;52.040;11.528;2024-03-23T01:34:22;14.25;;;5.82;;
40621;SDS011;26324;52.040;11.528;2024-03-23T01:36:48;12.35;;;4.95;;
40621;SDS011;26324;52.040;11.528;2024-03-23T01:39:14;10.65;;;4.93;;
40621;SDS011;26324;52.040;11.528;2024-03-23T01:41:41;13.05;;;4.75;;
40621;SDS011;26324;52.040;11.528;2024-03-23T01:44:08;12.07;;;5.00;;
40621;SDS011;26324;52.040;11.528;2024-03-23T01:46:35;12.00;;;5.43;;
40621;SDS011;26324;52.040;11.528;2024-03-23T01:49:06;15.18;;;4.88;;
40621;SDS011;26324;52.040;11.528;2024-03-23T01:51:32;14.80;;;5.35;;
40621;SDS011;26324;52.040;11.528;2024-03-23T01:54:00;9.90;;;5.05;;
40621;SDS011;26324;52.040;11.528;2024-03-23T01:56:29;15.00;;;5.80;;
40621;SDS011;26324;52.040;11.528;2024-03-23T01:58:59;13.10;;;5.38;;
40621;SDS011;26324;52.040;11.528;2024-03-23T02:01:26;16.20;;;5.50;;
40621;SDS011;26324;52.040;11.528;2024-03-23T02:03:52;15.50;;;5.90;;
40621;SDS011;26324;52.040;11.528;2024-03-23T02:06:19;11.77;;;4.88;;
40621;SDS011;26324;52.040;11.528;2024-03-23T02:08:45;8.75;;;5.40;;
40621;SDS011;26324;52.040;11.528;2024-03-23T02:11:12;16.50;;;5.45;;
40621;SDS011;26324;52.040;11.528;2024-03-23T02:13:38;14.63;;;5.38;;
40621;SDS011;26324;52.040;11.528;2024-03-23T02:16:05;16.90;;;6.05;;
40621;SDS011;26324;52.040;11.528;2024-03-23T02:18:35;12.05;;;5.00;;
40621;SDS011;26324;52.040;11.528;2024-03-23T02:21:02;9.85;;;5.22;;
40621;SDS011;26324;52.040;11.528;2024-03-23T02:23:29;8.60;;;4.15;;
40621;SDS011;26324;52.040;11.528;2024-03-23T02:25:55;6.63;;;2.10;;
40621;SDS011;26324;52.040;11.528;2024-03-23T02:28:22;1.58;;;0.52;;
40621;SDS011;26324;52.040;11.528;2024-03-23T02:30:49;1.60;;;0.70;;
40621;SDS011;26324;52.040;11.528;2024-03-23T02:33:16;5.38;;;1.45;;
40621;SDS011;26324;52.040;11.528;2024-03-23T02:35:45;3.65;;;1.23;;
40621;SDS011;26324;52.040;11.528;2024-03-23T02:38:13;6.78;;;1.20;;
40621;SDS011;26324;52.040;11.528;2024-03-23T02:40:39;1.30;;;0.68;;
40621;SDS011;26324;52.040;11.528;2024-03-23T02:43:05;1.42;;;0.77;;
40621;SDS011;26324;52.040;11.528;2024-03-23T02:45:32;4.60;;;1.10;;
40621;SDS011;26324;52.040;11.528;2024-03-23T02:47:58;2.25;;;0.95;;
40621;SDS011;26324;52.040;11.528;2024-03-23T02:50:24;2.25;;;0.90;;
40621;SDS011;26324;52.040;11.528;2024-03-23T02:52:51;3.58;;;1.05;;
40621;SDS011;26324;52.040;11.528;2024-03-23T02:55:17;1.38;;;0.40;;
40621;SDS011;26324;52.040;11.528;2024-03-23T02:57:43;2.47;;;0.60;;
40621;SDS011;26324;52.040;11.528;2024-03-23T03:00:10;0.85;;;0.65;;
40621;SDS011;26324;52.040;11.528;2024-03-23T03:02:36;5.43;;;0.60;;
40621;SDS011;26324;52.040;11.528;2024-03-23T03:05:04;0.70;;;0.52;;
40621;SDS011;26324;52.040;11.528;2024-03-23T03:07:31;2.35;;;0.80;;
40621;SDS011;26324;52.040;11.528;2024-03-23T03:09:58;1.15;;;0.60;;
40621;SDS011;26324;52.040;11.528;2024-03-23T03:12:24;1.83;;;0.98;;
40621;SDS011;26324;52.040;11.528;2024-03-23T03:14:50;1.30;;;0.80;;
40621;SDS011;26324;52.040;11.528;2024-03-23T03:17:17;2.83;;;0.80;;
40621;SDS011;26324;52.040;11.528;2024-03-23T03:19:43;1.65;;;0.70;;
40621;SDS011;26324;52.040;11.528;2024-03-23T03:22:09;5.45;;;1.00;;
40621;SDS011;26324;52.040;11.528;2024-03-23T03:24:36;4.47;;;0.70;;
40621;SDS011;26324;52.040;11.528;2024-03-23T03:27:02;0.77;;;0.70;;
40621;SDS011;26324;52.040;11.528;2024-03-23T03:29:29;2.03;;;0.77;;
40621;SDS011;26324;52.040;11.528;2024-03-23T03:32:02;1.25;;;0.75;;
40621;SDS011;26324;52.040;11.528;2024-03-23T03:34:28;7.97;;;0.90;;
40621;SDS011;26324;52.040;11.528;2024-03-23T03:36:55;1.60;;;1.02;;
40621;SDS011;26324;52.040;11.528;2024-03-23T03:39:22;3.78;;;1.20;;
40621;SDS011;26324;52.040;11.528;2024-03-23T03:41:49;1.67;;;1.05;;
40621;SDS011;26324;52.040;11.528;2024-03-23T03:44:15;1.15;;;0.63;;
40621;SDS011;26324;52.040;11.528;2024-03-23T03:46:42;1.55;;;1.02;;
40621;SDS011;26324;52.040;11.528;2024-03-23T03:49:08;3.30;;;0.90;;
40621;SDS011;26324;52.040;11.528;2024-03-23T03:51:35;0.55;;;0.32;;
40621;SDS011;26324;52.040;11.528;2024-03-23T03:54:01;2.00;;;0.55;;
40621;SDS011;26324;52.040;11.528;2024-03-23T03:56:28;0.28;;;0.28;;
40621;SDS011;26324;52.040;11.528;2024-03-23T03:58:54;2.20;;;0.90;;
40621;SDS011;26324;52.040;11.528;2024-03-23T04:01:20;6.72;;;0.82;;
40621;SDS011;26324;52.040;11.528;2024-03-23T04:03:47;2.30;;;0.63;;
40621;SDS011;26324;52.040;11.528;2024-03-23T04:06:18;3.33;;;0.65;;
40621;SDS011;26324;52.040;11.528;2024-03-23T04:08:45;1.52;;;0.77;;
40621;SDS011;26324;52.040;11.528;2024-03-23T04:11:11;0.55;;;0.43;;
40621;SDS011;26324;52.040;11.528;2024-03-23T04:13:38;2.70;;;0.82;;
40621;SDS011;26324;52.040;11.528;2024-03-23T04:16:07;2.72;;;0.73;;
40621;SDS011;26324;52.040;11.528;2024-03-23T04:18:35;1.13;;;0.50;;
40621;SDS011;26324;52.040;11.528;2024-03-23T04:21:01;7.72;;;1.17;;
40621;SDS011;26324;52.040;11.528;2024-03-23T04:23:27;1.45;;;0.80;;
40621;SDS011;26324;52.040;11.528;2024-03-23T04:25:54;0.93;;;0.40;;
40621;SDS011;26324;52.040;11.528;2024-03-23T04:28:20;3.33;;;0.75;;
40621;SDS011;26324;52.040;11.528;2024-03-23T04:30:46;1.77;;;0.65;;
40621;SDS011;26324;52.040;11.528;2024-03-23T04:33:13;6.65;;;0.90;;
40621;SDS011;26324;52.040;11.528;2024-03-23T04:35:39;4.15;;;0.98;;
40621;SDS011;26324;52.040;11.528;2024-03-23T04:38:05;1.58;;;0.82;;
40621;SDS011;26324;52.040;11.528;2024-03-23T04:40:32;2.63;;;0.80;;
40621;SDS011;26324;52.040;11.528;2024-03-23T04:42:58;3.47;;;0.45;;
40621;SDS011;26324;52.040;11.528;2024-03-23T04:45:25;1.77;;;0.57;;
40621;SDS011;26324;52.040;11.528;2024-03-23T04:47:51;2.13;;;0.85;;
40621;SDS011;26324;52.040;11.528;2024-03-23T04:50:17;2.13;;;1.02;;
40621;SDS011;26324;52.040;11.528;2024-03-23T04:52:44;2.40;;;0.98;;
40621;SDS011;26324;52.040;11.528;2024-03-23T04:55:10;1.00;;;0.55;;
40621;SDS011;26324;52.040;11.528;2024-03-23T04:57:38;4.80;;;1.25;;
40621;SDS011;26324;52.040;11.528;2024-03-23T05:00:04;1.35;;;0.60;;
40621;SDS011;26324;52.040;11.528;2024-03-23T05:02:43;2.28;;;0.82;;
40621;SDS011;26324;52.040;11.528;2024-03-23T05:05:11;2.08;;;0.77;;
40621;SDS011;26324;52.040;11.528;2024-03-23T05:07:38;0.65;;;0.20;;
40621;SDS011;26324;52.040;11.528;2024-03-23T05:10:04;2.47;;;0.43;;
40621;SDS011;26324;52.040;11.528;2024-03-23T05:12:31;2.50;;;0.73;;
40621;SDS011;26324;52.040;11.528;2024-03-23T05:14:58;4.10;;;1.15;;
40621;SDS011;26324;52.040;11.528;2024-03-23T05:17:24;0.60;;;0.32;;
40621;SDS011;26324;52.040;11.528;2024-03-23T05:19:50;1.15;;;0.82;;
40621;SDS011;26324;52.040;11.528;2024-03-23T05:22:17;6.68;;;1.63;;
40621;SDS011;26324;52.040;11.528;2024-03-23T05:24:44;3.15;;;0.63;;
40621;SDS011;26324;52.040;11.528;2024-03-23T05:27:11;1.02;;;0.43;;
40621;SDS011;26324;52.040;11.528;2024-03-23T05:29:37;1.40;;;0.88;;
40621;SDS011;26324;52.040;11.528;2024-03-23T05:32:04;0.32;;;0.32;;
40621;SDS011;26324;52.040;11.528;2024-03-23T05:34:30;3.13;;;1.00;;
40621;SDS011;26324;52.040;11.528;2024-03-23T05:36:57;6.75;;;0.85;;
40621;SDS011;26324;52.040;11.528;2024-03-23T05:39:23;3.90;;;0.63;;
40621;SDS011;26324;52.040;11.528;2024-03-23T05:41:49;0.65;;;0.40;;
40621;SDS011;26324;52.040;11.528;2024-03-23T05:44:16;6.03;;;0.90;;
40621;SDS011;26324;52.040;11.528;2024-03-23T05:46:43;2.67;;;0.47;;
40621;SDS011;26324;52.040;11.528;2024-03-23T05:49:14;4.03;;;0.73;;
40621;SDS011;26324;52.040;11.528;2024-03-23T05:51:42;1.80;;;0.63;;
40621;SDS011;26324;52.040;11.528;2024-03-23T05:54:09;3.28;;;1.40;;
40621;SDS011;26324;52.040;11.528;2024-03-23T05:56:35;1.35;;;0.32;;
40621;SDS011;26324;52.040;11.528;2024-03-23T05:59:02;2.10;;;0.30;;
40621;SDS011;26324;52.040;11.528;2024-03-23T06:01:29;2.80;;;0.68;;
40621;SDS011;26324;52.040;11.528;2024-03-23T06:03:58;4.25;;;0.57;;
40621;SDS011;26324;52.040;11.528;2024-03-23T06:06:27;0.03;;;0.03;;
40621;SDS011;26324;52.040;11.528;2024-03-23T06:08:56;3.92;;;0.47;;
40621;SDS011;26324;52.040;11.528;2024-03-23T06:11:22;3.22;;;0.55;;
40621;SDS011;26324;52.040;11.528;2024-03-23T06:13:48;3.53;;;0.45;;
40621;SDS011;26324;52.040;11.528;2024-03-23T06:16:15;0.30;;;0.28;;
40621;SDS011;26324;52.040;11.528;2024-03-23T06:18:41;0.30;;;0.28;;
40621;SDS011;26324;52.040;11.528;2024-03-23T06:21:12;0.82;;;0.35;;
40621;SDS011;26324;52.040;11.528;2024-03-23T06:23:40;2.35;;;0.38;;
40621;SDS011;26324;52.040;11.528;2024-03-23T06:26:17;0.47;;;0.25;;
40621;SDS011;26324;52.040;11.528;2024-03-23T06:28:45;0.88;;;0.50;;
40621;SDS011;26324;52.040;11.528;2024-03-23T06:31:12;1.55;;;0.40;;
40621;SDS011;26324;52.040;11.528;2024-03-23T06:33:38;2.70;;;0.80;;
40621;SDS011;26324;52.040;11.528;2024-03-23T06:36:07;0.95;;;0.65;;
40621;SDS011;26324;52.040;11.528;2024-03-23T06:38:35;0.25;;;0.20;;
40621;SDS011;26324;52.040;11.528;2024-03-23T06:41:06;8.45;;;0.73;;
40621;SDS011;26324;52.040;11.528;2024-03-23T06:43:35;0.80;;;0.30;;
40621;SDS011;26324;52.040;11.528;2024-03-23T06:46:01;4.60;;;0.63;;
40621;SDS011;26324;52.040;11.528;2024-03-23T06:48:29;2.72;;;0.60;;
40621;SDS011;26324;52.040;11.528;2024-03-23T06:50:56;1.95;;;1.00;;
40621;SDS011;26324;52.040;11.528;2024-03-23T06:53:23;4.72;;;0.73;;
40621;SDS011;26324;52.040;11.528;2024-03-23T06:55:50;3.35;;;0.98;;
40621;SDS011;26324;52.040;11.528;2024-03-23T06:58:21;0.88;;;0.60;;
40621;SDS011;26324;52.040;11.528;2024-03-23T07:00:49;2.72;;;0.95;;
40621;SDS011;26324;52.040;11.528;2024-03-23T07:03:16;2.53;;;0.80;;
40621;SDS011;26324;52.040;11.528;2024-03-23T07:05:43;0.45;;;0.45;;
40621;SDS011;26324;52.040;11.528;2024-03-23T07:08:09;8.32;;;1.00;;
40621;SDS011;26324;52.040;11.528;2024-03-23T07:10:38;5.53;;;0.68;;
40621;SDS011;26324;52.040;11.528;2024-03-23T07:13:06;3.78;;;0.47;;
40621;SDS011;26324;52.040;11.528;2024-03-23T07:15:33;5.47;;;1.08;;
40621;SDS011;26324;52.040;11.528;2024-03-23T07:17:59;1.02;;;0.47;;
40621;SDS011;26324;52.040;11.528;2024-03-23T07:20:27;1.35;;;0.28;;
40621;SDS011;26324;52.040;11.528;2024-03-23T07:22:53;1.00;;;0.68;;
40621;SDS011;26324;52.040;11.528;2024-03-23T07:25:19;0.20;;;0.20;;
40621;SDS011;26324;52.040;11.528;2024-03-23T07:27:47;0.28;;;0.28;;
40621;SDS011;26324;52.040;11.528;2024-03-23T07:30:13;0.68;;;0.60;;
40621;SDS011;26324;52.040;11.528;2024-03-23T07:32:40;2.60;;;0.38;;
40621;SDS011;26324;52.040;11.528;2024-03-23T07:35:06;7.93;;;0.60;;
40621;SDS011;26324;52.040;11.528;2024-03-23T07:37:33;0.60;;;0.57;;
40621;SDS011;26324;52.040;11.528;2024-03-23T07:39:59;0.30;;;0.30;;
40621;SDS011;26324;52.040;11.528;2024-03-23T07:42:25;1.60;;;0.52;;
40621;SDS011;26324;52.040;11.528;2024-03-23T07:44:52;0.55;;;0.25;;
40621;SDS011;26324;52.040;11.528;2024-03-23T07:47:20;0.52;;;0.15;;
40621;SDS011;26324;52.040;11.528;2024-03-23T07:49:47;1.73;;;0.47;;
40621;SDS011;26324;52.040;11.528;2024-03-23T07:52:14;2.70;;;0.30;;
40621;SDS011;26324;52.040;11.528;2024-03-23T07:54:40;2.83;;;0.77;;
40621;SDS011;26324;52.040;11.528;2024-03-23T07:57:07;1.67;;;0.63;;
40621;SDS011;26324;52.040;11.528;2024-03-23T07:59:33;2.08;;;0.30;;
40621;SDS011;26324;52.040;11.528;2024-03-23T08:02:00;0.40;;;0.30;;
40621;SDS011;26324;52.040;11.528;2024-03-23T08:04:27;0.57;;;0.50;;
40621;SDS011;26324;52.040;11.528;2024-03-23T08:06:53;2.72;;;0.60;;
40621;SDS011;26324;52.040;11.528;2024-03-23T08:09:20;0.82;;;0.40;;
40621;SDS011;26324;52.040;11.528;2024-03-23T08:11:46;1.98;;;0.65;;
40621;SDS011;26324;52.040;11.528;2024-03-23T08:14:13;1.85;;;0.40;;
40621;SDS011;26324;52.040;11.528;2024-03-23T08:16:40;0.75;;;0.40;;
40621;SDS011;26324;52.040;11.528;2024-03-23T08:19:07;2.58;;;0.65;;
40621;SDS011;26324;52.040;11.528;2024-03-23T08:21:34;0.95;;;0.28;;
40621;SDS011;26324;52.040;11.528;2024-03-23T08:24:01;0.80;;;0.40;;
40621;SDS011;26324;52.040;11.528;2024-03-23T08:26:27;0.70;;;0.60;;
40621;SDS011;26324;52.040;11.528;2024-03-23T08:28:53;0.35;;;0.35;;
40621;SDS011;26324;52.040;11.528;2024-03-23T08:31:20;0.40;;;0.40;;
40621;SDS011;26324;52.040;11.528;2024-03-23T08:33:46;0.98;;;0.70;;
40621;SDS011;26324;52.040;11.528;2024-03-23T08:36:13;3.78;;;0.55;;
40621;SDS011;26324;52.040;11.528;2024-03-23T08:38:42;1.08;;;0.45;;
40621;SDS011;26324;52.040;11.528;2024-03-23T08:41:09;1.70;;;0.63;;
40621;SDS011;26324;52.040;11.528;2024-03-23T08:43:39;1.23;;;0.40;;
40621;SDS011;26324;52.040;11.528;2024-03-23T08:46:10;0.35;;;0.30;;
40621;SDS011;26324;52.040;11.528;2024-03-23T08:48:39;1.48;;;0.70;;
40621;SDS011;26324;52.040;11.528;2024-03-23T08:51:07;1.80;;;0.60;;
40621;SDS011;26324;52.040;11.528;2024-03-23T08:53:37;1.48;;;0.90;;
40621;SDS011;26324;52.040;11.528;2024-03-23T08:56:04;1.17;;;0.73;;
40621;SDS011;26324;52.040;11.528;2024-03-23T08:58:35;0.55;;;0.20;;
40621;SDS011;26324;52.040;11.528;2024-03-23T09:01:12;2.40;;;0.73;;
40621;SDS011;26324;52.040;11.528;2024-03-23T09:03:39;2.25;;;0.85;;
40621;SDS011;26324;52.040;11.528;2024-03-23T09:06:09;1.10;;;0.80;;
40621;SDS011;26324;52.040;11.528;2024-03-23T09:08:37;1.02;;;0.50;;
40621;SDS011;26324;52.040;11.528;2024-03-23T09:11:05;3.92;;;1.08;;
40621;SDS011;26324;52.040;11.528;2024-03-23T09:13:33;2.20;;;1.05;;
40621;SDS011;26324;52.040;11.528;2024-03-23T09:16:00;0.57;;;0.38;;
40621;SDS011;26324;52.040;11.528;2024-03-23T09:18:27;0.98;;;0.52;;
40621;SDS011;26324;52.040;11.528;2024-03-23T09:20:53;6.70;;;0.50;;
40621;SDS011;26324;52.040;11.528;2024-03-23T09:23:20;4.20;;;0.73;;
40621;SDS011;26324;52.040;11.528;2024-03-23T09:25:47;5.05;;;1.20;;
40621;SDS011;26324;52.040;11.528;2024-03-23T09:28:14;3.28;;;0.75;;
40621;SDS011;26324;52.040;11.528;2024-03-23T09:30:40;0.35;;;0.20;;
40621;SDS011;26324;52.040;11.528;2024-03-23T09:33:11;5.60;;;1.25;;
40621;SDS011;26324;52.040;11.528;2024-03-23T09:35:39;6.43;;;1.02;;
40621;SDS011;26324;52.040;11.528;2024-03-23T09:38:06;1.60;;;0.50;;
40621;SDS011;26324;52.040;11.528;2024-03-23T09:40:42;1.80;;;0.47;;
40621;SDS011;26324;52.040;11.528;2024-03-23T09:43:09;3.00;;;0.55;;
40621;SDS011;26324;52.040;11.528;2024-03-23T09:45:40;0.98;;;0.30;;
40621;SDS011;26324;52.040;11.528;2024-03-23T09:48:08;3.67;;;0.65;;
40621;SDS011;26324;52.040;11.528;2024-03-23T09:50:38;1.00;;;0.40;;
40621;SDS011;26324;52.040;11.528;2024-03-23T09:53:09;2.03;;;0.82;;
40621;SDS011;26324;52.040;11.528;2024-03-23T09:55:43;2.35;;;0.75;;
40621;SDS011;26324;52.040;11.528;2024-03-23T09:58:17;4.05;;;0.90;;
40621;SDS011;26324;52.040;11.528;2024-03-23T10:00:44;3.58;;;1.15;;
40621;SDS011;26324;52.040;11.528;2024-03-23T10:03:11;3.20;;;0.95;;
40621;SDS011;26324;52.040;11.528;2024-03-23T10:05:37;2.88;;;1.20;;
40621;SDS011;26324;52.040;11.528;2024-03-23T10:10:43;1.95;;;0.63;;
40621;SDS011;26324;52.040;11.528;2024-03-23T10:13:12;7.07;;;1.90;;
40621;SDS011;26324;52.040;11.528;2024-03-23T10:15:54;0.85;;;0.20;;
40621;SDS011;26324;52.040;11.528;2024-03-23T10:18:22;0.75;;;0.32;;
40621;SDS011;26324;52.040;11.528;2024-03-23T10:20:51;7.63;;;0.68;;
40621;SDS011;26324;52.040;11.528;2024-03-23T10:23:32;3.85;;;0.95;;
40621;SDS011;26324;52.040;11.528;2024-03-23T10:26:12;2.17;;;0.40;;
40621;SDS011;26324;52.040;11.528;2024-03-23T10:28:54;6.75;;;1.00;;
40621;SDS011;26324;52.040;11.528;2024-03-23T10:31:24;8.57;;;0.73;;
40621;SDS011;26324;52.040;11.528;2024-03-23T10:33:51;4.35;;;0.50;;
40621;SDS011;26324;52.040;11.528;2024-03-23T10:36:21;1.85;;;0.77;;
40621;SDS011;26324;52.040;11.528;2024-03-23T10:38:49;2.35;;;1.00;;
40621;SDS011;26324;52.040;11.528;2024-03-23T10:41:18;2.15;;;0.60;;
40621;SDS011;26324;52.040;11.528;2024-03-23T10:43:46;3.90;;;0.77;;
40621;SDS011;26324;52.040;11.528;2024-03-23T10:46:13;3.42;;;0.63;;
40621;SDS011;26324;52.040;11.528;2024-03-23T10:48:40;2.35;;;0.80;;
40621;SDS011;26324;52.040;11.528;2024-03-23T10:51:07;2.72;;;0.55;;
40621;SDS011;26324;52.040;11.528;2024-03-23T10:53:35;2.15;;;0.90;;
40621;SDS011;26324;52.040;11.528;2024-03-23T10:56:04;3.17;;;0.63;;
40621;SDS011;26324;52.040;11.528;2024-03-23T10:58:33;1.38;;;0.40;;
40621;SDS011;26324;52.040;11.528;2024-03-23T11:01:05;4.28;;;0.80;;
40621;SDS011;26324;52.040;11.528;2024-03-23T11:03:32;0.47;;;0.28;;
40621;SDS011;26324;52.040;11.528;2024-03-23T11:06:00;2.67;;;0.95;;
40621;SDS011;26324;52.040;11.528;2024-03-23T11:08:45;1.15;;;0.52;;
40621;SDS011;26324;52.040;11.528;2024-03-23T11:13:38;0.63;;;0.17;;
40621;SDS011;26324;52.040;11.528;2024-03-23T11:16:12;2.90;;;0.93;;
40621;SDS011;26324;52.040;11.528;2024-03-23T11:18:40;5.47;;;0.70;;
40621;SDS011;26324;52.040;11.528;2024-03-23T11:21:08;2.05;;;0.50;;
40621;SDS011;26324;52.040;11.528;2024-03-23T11:23:34;1.23;;;0.50;;
40621;SDS011;26324;52.040;11.528;2024-03-23T11:26:01;4.53;;;0.90;;
40621;SDS011;26324;52.040;11.528;2024-03-23T11:28:30;1.48;;;0.80;;
40621;SDS011;26324;52.040;11.528;2024-03-23T11:30:57;4.10;;;0.60;;
40621;SDS011;26324;52.040;11.528;2024-03-23T11:33:23;3.60;;;0.85;;
40621;SDS011;26324;52.040;11.528;2024-03-23T11:35:50;4.38;;;1.55;;
40621;SDS011;26324;52.040;11.528;2024-03-23T11:38:17;2.78;;;1.42;;
40621;SDS011;26324;52.040;11.528;2024-03-23T11:40:45;6.45;;;2.75;;
40621;SDS011;26324;52.040;11.528;2024-03-23T11:43:13;6.07;;;1.20;;
40621;SDS011;26324;52.040;11.528;2024-03-23T11:45:50;2.05;;;0.75;;
40621;SDS011;26324;52.040;11.528;2024-03-23T11:48:22;2.08;;;0.82;;
40621;SDS011;26324;52.040;11.528;2024-03-23T11:50:50;4.70;;;1.25;;
40621;SDS011;26324;52.040;11.528;2024-03-23T11:53:17;2.38;;;0.80;;
40621;SDS011;26324;52.040;11.528;2024-03-23T11:58:15;3.83;;;1.30;;
40621;SDS011;26324;52.040;11.528;2024-03-23T12:00:42;4.47;;;1.23;;
40621;SDS011;26324;52.040;11.528;2024-03-23T12:03:09;14.77;;;1.13;;
40621;SDS011;26324;52.040;11.528;2024-03-23T12:05:36;2.70;;;1.17;;
40621;SDS011;26324;52.040;11.528;2024-03-23T12:08:17;2.20;;;0.90;;
40621;SDS011;26324;52.040;11.528;2024-03-23T12:10:44;4.43;;;0.85;;
40621;SDS011;26324;52.040;11.528;2024-03-23T12:13:12;3.65;;;1.40;;
40621;SDS011;26324;52.040;11.528;2024-03-23T12:15:40;6.47;;;1.05;;
40621;SDS011;26324;52.040;11.528;2024-03-23T12:18:08;6.55;;;1.30;;
40621;SDS011;26324;52.040;11.528;2024-03-23T12:20:35;2.75;;;0.80;;
40621;SDS011;26324;52.040;11.528;2024-03-23T12:23:07;1.50;;;0.68;;
40621;SDS011;26324;52.040;11.528;2024-03-23T12:25:35;5.05;;;1.48;;
40621;SDS011;26324;52.040;11.528;2024-03-23T12:28:02;3.03;;;1.08;;
40621;SDS011;26324;52.040;11.528;2024-03-23T12:30:30;1.20;;;0.50;;
40621;SDS011;26324;52.040;11.528;2024-03-23T12:32:57;2.75;;;0.57;;
40621;SDS011;26324;52.040;11.528;2024-03-23T12:35:23;3.75;;;0.75;;
40621;SDS011;26324;52.040;11.528;2024-03-23T12:37:50;3.70;;;1.10;;
40621;SDS011;26324;52.040;11.528;2024-03-23T12:40:17;3.50;;;1.15;;
40621;SDS011;26324;52.040;11.528;2024-03-23T12:42:44;3.65;;;1.02;;
40621;SDS011;26324;52.040;11.528;2024-03-23T12:45:10;3.20;;;1.25;;
40621;SDS011;26324;52.040;11.528;2024-03-23T12:47:37;1.27;;;0.68;;
40621;SDS011;26324;52.040;11.528;2024-03-23T12:50:04;1.20;;;0.80;;
40621;SDS011;26324;52.040;11.528;2024-03-23T12:52:32;3.92;;;0.68;;
40621;SDS011;26324;52.040;11.528;2024-03-23T12:54:59;1.83;;;1.45;;
40621;SDS011;26324;52.040;11.528;2024-03-23T12:57:26;3.22;;;1.40;;
40621;SDS011;26324;52.040;11.528;2024-03-23T12:59:53;3.55;;;0.93;;
40621;SDS011;26324;52.040;11.528;2024-03-23T13:02:20;3.17;;;2.15;;
40621;SDS011;26324;52.040;11.528;2024-03-23T13:04:49;0.82;;;0.22;;
40621;SDS011;26324;52.040;11.528;2024-03-23T13:07:19;0.80;;;0.70;;
40621;SDS011;26324;52.040;11.528;2024-03-23T13:09:46;3.13;;;0.22;;
40621;SDS011;26324;52.040;11.528;2024-03-23T13:12:13;0.70;;;0.70;;
40621;SDS011;26324;52.040;11.528;2024-03-23T13:14:40;1.80;;;0.85;;
40621;SDS011;26324;52.040;11.528;2024-03-23T13:17:08;0.90;;;0.82;;
40621;SDS011;26324;52.040;11.528;2024-03-23T13:19:35;1.98;;;0.73;;
40621;SDS011;26324;52.040;11.528;2024-03-23T13:22:01;4.32;;;0.88;;
40621;SDS011;26324;52.040;11.528;2024-03-23T13:24:29;4.13;;;0.70;;
40621;SDS011;26324;52.040;11.528;2024-03-23T13:26:56;1.30;;;0.90;;
40621;SDS011;26324;52.040;11.528;2024-03-23T13:29:23;1.75;;;1.08;;
40621;SDS011;26324;52.040;11.528;2024-03-23T13:31:50;2.47;;;1.08;;
40621;SDS011;26324;52.040;11.528;2024-03-23T13:34:17;1.92;;;1.33;;
40621;SDS011;26324;52.040;11.528;2024-03-23T13:36:45;0.98;;;0.55;;
40621;SDS011;26324;52.040;11.528;2024-03-23T13:39:12;2.70;;;1.27;;
40621;SDS011;26324;52.040;11.528;2024-03-23T13:41:40;3.00;;;1.08;;
40621;SDS011;26324;52.040;11.528;2024-03-23T13:44:07;3.08;;;0.98;;
40621;SDS011;26324;52.040;11.528;2024-03-23T13:46:34;1.63;;;0.68;;
40621;SDS011;26324;52.040;11.528;2024-03-23T13:49:00;0.68;;;0.40;;
40621;SDS011;26324;52.040;11.528;2024-03-23T13:51:27;1.98;;;0.28;;
40621;SDS011;26324;52.040;11.528;2024-03-23T13:53:54;0.63;;;0.50;;
40621;SDS011;26324;52.040;11.528;2024-03-23T13:56:22;1.15;;;0.65;;
40621;SDS011;26324;52.040;11.528;2024-03-23T13:58:49;2.63;;;0.57;;
40621;SDS011;26324;52.040;11.528;2024-03-23T14:01:16;0.47;;;0.32;;
40621;SDS011;26324;52.040;11.528;2024-03-23T14:03:43;2.58;;;0.50;;
40621;SDS011;26324;52.040;11.528;2024-03-23T14:06:10;2.72;;;0.95;;
40621;SDS011;26324;52.040;11.528;2024-03-23T14:08:37;1.48;;;0.47;;
40621;SDS011;26324;52.040;11.528;2024-03-23T14:11:07;1.73;;;0.80;;
40621;SDS011;26324;52.040;11.528;2024-03-23T14:13:34;2.40;;;0.70;;
40621;SDS011;26324;52.040;11.528;2024-03-23T14:16:01;1.08;;;0.60;;
40621;SDS011;26324;52.040;11.528;2024-03-23T14:18:28;1.33;;;0.95;;
40621;SDS011;26324;52.040;11.528;2024-03-23T14:20:59;1.05;;;0.50;;
40621;SDS011;26324;52.040;11.528;2024-03-23T14:23:27;0.93;;;0.50;;
40621;SDS011;26324;52.040;11.528;2024-03-23T14:26:00;3.03;;;0.40;;
40621;SDS011;26324;52.040;11.528;2024-03-23T14:28:27;0.65;;;0.60;;
40621;SDS011;26324;52.040;11.528;2024-03-23T14:30:55;2.08;;;0.25;;
40621;SDS011;26324;52.040;11.528;2024-03-23T14:33:22;0.75;;;0.47;;
40621;SDS011;26324;52.040;11.528;2024-03-23T14:35:53;1.48;;;0.50;;
40621;SDS011;26324;52.040;11.528;2024-03-23T14:38:21;1.30;;;0.47;;
40621;SDS011;26324;52.040;11.528;2024-03-23T14:40:48;3.50;;;0.65;;
40621;SDS011;26324;52.040;11.528;2024-03-23T14:43:15;0.15;;;0.15;;
40621;SDS011;26324;52.040;11.528;2024-03-23T14:48:27;0.75;;;0.57;;
40621;SDS011;26324;52.040;11.528;2024-03-23T14:50:57;5.68;;;0.50;;
40621;SDS011;26324;52.040;11.528;2024-03-23T14:53:25;1.40;;;0.40;;
40621;SDS011;26324;52.040;11.528;2024-03-23T14:55:55;0.70;;;0.20;;
40621;SDS011;26324;52.040;11.528;2024-03-23T14:58:22;1.13;;;0.57;;
40621;SDS011;26324;52.040;11.528;2024-03-23T15:00:50;1.30;;;0.32;;
40621;SDS011;26324;52.040;11.528;2024-03-23T15:03:18;1.52;;;0.40;;
40621;SDS011;26324;52.040;11.528;2024-03-23T15:05:57;0.47;;;0.30;;
40621;SDS011;26324;52.040;11.528;2024-03-23T15:08:26;1.25;;;0.30;;
40621;SDS011;26324;52.040;11.528;2024-03-23T15:10:53;0.68;;;0.57;;
40621;SDS011;26324;52.040;11.528;2024-03-23T15:13:20;1.70;;;0.43;;
40621;SDS011;26324;52.040;11.528;2024-03-23T15:15:50;1.13;;;0.70;;
40621;SDS011;26324;52.040;11.528;2024-03-23T15:18:18;0.32;;;0.17;;
40621;SDS011;26324;52.040;11.528;2024-03-23T15:20:54;0.47;;;0.32;;
40621;SDS011;26324;52.040;11.528;2024-03-23T15:23:21;1.40;;;0.55;;
40621;SDS011;26324;52.040;11.528;2024-03-23T15:25:55;1.00;;;0.50;;
40621;SDS011;26324;52.040;11.528;2024-03-23T15:28:22;0.65;;;0.38;;
40621;SDS011;26324;52.040;11.528;2024-03-23T15:30:49;0.77;;;0.32;;
40621;SDS011;26324;52.040;11.528;2024-03-23T15:33:16;1.58;;;0.50;;
40621;SDS011;26324;52.040;11.528;2024-03-23T15:35:43;0.52;;;0.40;;
40621;SDS011;26324;52.040;11.528;2024-03-23T15:38:09;0.52;;;0.40;;
40621;SDS011;26324;52.040;11.528;2024-03-23T15:40:36;0.73;;;0.73;;